createdAt,value
2023-04-20T00:01:57.735Z,2.80
2023-04-20T00:04:24.572Z,2.80
2023-04-20T00:06:51.966Z,2.80
2023-04-20T00:09:19.362Z,2.80
2023-04-20T00:11:46.591Z,2.80
2023-04-20T00:14:13.382Z,2.90
2023-04-20T00:16:40.207Z,3.00
2023-04-20T00:19:08.246Z,3.00
2023-04-20T00:21:35.430Z,3.10
2023-04-20T00:24:04.405Z,3.00
2023-04-20T00:26:31.286Z,3.00
2023-04-20T00:29:01.462Z,2.90
2023-04-20T00:31:28.303Z,2.70
2023-04-20T00:33:55.480Z,2.60
2023-04-20T00:36:22.250Z,2.60
2023-04-20T00:38:53.749Z,2.60
2023-04-20T00:41:23.460Z,2.40
2023-04-20T00:43:51.645Z,2.40
2023-04-20T00:46:21.798Z,2.30
2023-04-20T00:48:50.989Z,2.20
2023-04-20T00:51:18.205Z,2.20
2023-04-20T00:53:47.499Z,2.10
2023-04-20T00:56:15.284Z,2.20
2023-04-20T00:58:45.008Z,2.20
2023-04-20T01:01:12.298Z,2.30
2023-04-20T01:03:39.803Z,2.30
2023-04-20T01:06:07.406Z,2.10
2023-04-20T01:08:34.173Z,2.10
2023-04-20T01:11:03.857Z,2.10
2023-04-20T01:13:30.673Z,2.10
2023-04-20T01:16:00.340Z,2.00
2023-04-20T01:18:27.772Z,2.00
2023-04-20T01:20:57.229Z,1.90
2023-04-20T01:23:24.031Z,1.90
2023-04-20T01:25:50.908Z,1.90
2023-04-20T01:28:20.104Z,1.90
2023-04-20T01:30:49.452Z,1.90
2023-04-20T01:33:16.293Z,1.90
2023-04-20T01:35:48.379Z,1.90
2023-04-20T01:38:22.088Z,1.80
2023-04-20T01:40:49.147Z,1.80
2023-04-20T01:43:16.491Z,1.80
2023-04-20T01:45:44.402Z,1.70
2023-04-20T01:48:12.455Z,1.60
2023-04-20T01:50:39.378Z,1.60
2023-04-20T01:53:08.755Z,1.50
2023-04-20T01:55:35.966Z,1.50
2023-04-20T01:58:04.878Z,1.40
2023-04-20T02:00:31.673Z,1.40
2023-04-20T02:02:59.242Z,1.40
2023-04-20T02:05:26.285Z,1.40
2023-04-20T02:07:53.158Z,1.40
2023-04-20T02:10:20.033Z,1.30
2023-04-20T02:12:46.809Z,1.30
2023-04-20T02:15:13.627Z,1.20
2023-04-20T02:17:41.144Z,1.20
2023-04-20T02:20:09.359Z,1.20
2023-04-20T02:22:36.970Z,1.00
2023-04-20T02:25:04.882Z,1.10
2023-04-20T02:27:34.620Z,1.20
2023-04-20T02:30:01.574Z,1.30
2023-04-20T02:32:28.296Z,1.20
2023-04-20T02:34:55.116Z,1.10
2023-04-20T02:37:24.271Z,1.00
2023-04-20T02:39:51.254Z,1.10
2023-04-20T02:42:18.076Z,1.00
2023-04-20T02:44:47.262Z,1.00
2023-04-20T02:47:17.092Z,0.90
2023-04-20T02:49:46.300Z,0.90
2023-04-20T02:52:16.585Z,0.80
2023-04-20T02:54:43.402Z,0.80
2023-04-20T02:57:12.346Z,0.80
2023-04-20T02:59:39.498Z,0.80
2023-04-20T03:02:16.394Z,0.80
2023-04-20T03:04:43.409Z,0.70
2023-04-20T03:07:18.449Z,0.80
2023-04-20T03:09:46.750Z,0.70
2023-04-20T03:12:19.116Z,0.60
2023-04-20T03:15:12.116Z,0.60
2023-04-20T03:17:58.400Z,0.50
2023-04-20T03:20:25.365Z,0.40
2023-04-20T03:22:52.219Z,0.50
2023-04-20T03:25:22.143Z,0.50
2023-04-20T03:27:53.542Z,0.60
2023-04-20T03:30:22.485Z,0.60
2023-04-20T03:32:55.007Z,0.60
2023-04-20T03:35:22.057Z,0.60
2023-04-20T03:37:48.840Z,0.60
2023-04-20T03:40:15.823Z,0.60
2023-04-20T03:42:44.962Z,0.60
2023-04-20T03:45:12.029Z,0.60
2023-04-20T03:47:38.873Z,0.70
2023-04-20T03:50:06.411Z,0.90
2023-04-20T03:52:33.210Z,1.00
2023-04-20T03:55:03.999Z,1.10
2023-04-20T03:57:30.950Z,1.30
2023-04-20T03:59:57.879Z,1.40
2023-04-20T04:02:27.532Z,1.40
2023-04-20T04:04:55.588Z,1.50
2023-04-20T04:07:22.752Z,1.60
2023-04-20T04:09:57.752Z,1.70
2023-04-20T04:12:24.815Z,1.80
2023-04-20T04:14:51.854Z,1.80
2023-04-20T04:17:51.283Z,1.90
2023-04-20T04:20:20.786Z,1.90
2023-04-20T04:22:47.970Z,1.90
2023-04-20T04:25:46.083Z,1.90
2023-04-20T04:28:14.906Z,1.80
2023-04-20T04:30:55.450Z,1.80
2023-04-20T04:33:23.252Z,1.80
2023-04-20T04:35:55.528Z,1.90
2023-04-20T04:38:22.909Z,2.00
2023-04-20T04:40:52.438Z,2.00
2023-04-20T04:43:19.846Z,2.10
2023-04-20T04:45:59.569Z,2.10
2023-04-20T04:48:27.923Z,2.30
2023-04-20T04:50:54.806Z,2.40
2023-04-20T04:53:22.305Z,2.50
2023-04-20T04:55:49.546Z,2.60
2023-04-20T04:58:16.600Z,2.60
2023-04-20T05:00:43.996Z,2.70
2023-04-20T05:03:10.896Z,2.90
2023-04-20T05:05:38.275Z,3.00
2023-04-20T05:08:05.418Z,3.00
2023-04-20T05:10:32.335Z,2.90
2023-04-20T05:13:00.426Z,2.70
2023-04-20T05:15:27.322Z,2.60
2023-04-20T05:17:54.316Z,2.60
2023-04-20T05:20:21.296Z,2.60
2023-04-20T05:22:48.081Z,2.60
2023-04-20T05:25:15.309Z,2.70
2023-04-20T05:27:42.063Z,2.70
2023-04-20T05:30:19.457Z,2.60
2023-04-20T05:32:50.637Z,2.60
2023-04-20T05:35:21.466Z,2.50
2023-04-20T05:37:48.655Z,2.60
2023-04-20T05:40:15.953Z,2.70
2023-04-20T05:42:43.200Z,2.80
2023-04-20T05:45:10.464Z,2.90
2023-04-20T05:47:37.344Z,3.10
2023-04-20T05:50:04.800Z,3.40
2023-04-20T05:52:31.813Z,3.60
2023-04-20T05:54:59.515Z,4.00
2023-04-20T05:57:26.433Z,4.20
2023-04-20T05:59:55.432Z,4.40
2023-04-20T06:02:22.501Z,4.60
2023-04-20T06:04:49.549Z,4.80
2023-04-20T06:07:16.838Z,4.90
2023-04-20T06:09:46.107Z,5.10
2023-04-20T06:12:12.904Z,5.20
2023-04-20T06:14:39.729Z,5.40
2023-04-20T06:17:06.568Z,5.40
2023-04-20T06:19:33.342Z,5.20
2023-04-20T06:22:01.116Z,5.10
2023-04-20T06:24:28.102Z,5.00
2023-04-20T06:26:55.042Z,5.30
2023-04-20T06:29:21.976Z,5.30
2023-04-20T06:31:51.212Z,4.90
2023-04-20T06:34:20.567Z,4.90
2023-04-20T06:36:47.534Z,4.90
2023-04-20T06:39:17.157Z,5.00
2023-04-20T06:41:44.426Z,5.00
2023-04-20T06:44:14.427Z,4.90
2023-04-20T06:46:41.463Z,4.90
2023-04-20T06:49:10.828Z,4.70
2023-04-20T06:51:39.282Z,4.70
2023-04-20T06:54:06.279Z,4.90
2023-04-20T06:56:34.897Z,5.30
2023-04-20T06:59:02.754Z,5.50
2023-04-20T07:01:31.994Z,5.60
2023-04-20T07:03:59.036Z,5.80
2023-04-20T07:06:28.296Z,5.70
2023-04-20T07:08:57.403Z,5.40
2023-04-20T07:11:24.556Z,5.50
2023-04-20T07:13:51.416Z,5.50
2023-04-20T07:16:21.493Z,5.60
2023-04-20T07:18:50.882Z,5.20
2023-04-20T07:21:20.457Z,5.00
2023-04-20T07:23:51.853Z,5.20
2023-04-20T07:26:18.788Z,5.30
2023-04-20T07:28:45.577Z,5.40
2023-04-20T07:31:14.745Z,5.40
2023-04-20T07:33:41.518Z,5.50
2023-04-20T07:36:10.670Z,5.50
2023-04-20T07:38:37.497Z,5.70
2023-04-20T07:41:06.606Z,5.80
2023-04-20T07:43:33.724Z,6.00
2023-04-20T07:46:02.946Z,6.10
2023-04-20T07:48:32.383Z,6.20
2023-04-20T07:51:01.947Z,6.30
2023-04-20T07:53:31.313Z,6.30
2023-04-20T07:55:58.084Z,6.40
2023-04-20T07:58:24.953Z,6.70
2023-04-20T08:00:51.781Z,7.10
2023-04-20T08:03:23.413Z,7.30
2023-04-20T08:05:52.648Z,7.50
2023-04-20T08:08:19.542Z,7.60
2023-04-20T08:10:50.575Z,7.40
2023-04-20T08:13:17.647Z,7.30
2023-04-20T08:15:46.971Z,7.20
2023-04-20T08:18:16.182Z,7.20
2023-04-20T08:20:48.909Z,7.10
2023-04-20T08:23:18.169Z,7.10
2023-04-20T08:25:47.034Z,7.20
2023-04-20T08:28:24.145Z,7.20
2023-04-20T08:31:02.375Z,7.20
2023-04-20T08:33:29.354Z,7.20
2023-04-20T08:35:56.238Z,7.20
2023-04-20T08:38:33.381Z,7.20
2023-04-20T08:41:01.419Z,7.10
2023-04-20T08:43:30.753Z,7.20
2023-04-20T08:46:01.739Z,7.20
2023-04-20T08:48:33.981Z,7.20
2023-04-20T08:51:04.055Z,7.30
2023-04-20T08:53:33.317Z,7.20
2023-04-20T08:56:00.289Z,7.40
2023-04-20T08:58:32.121Z,7.40
2023-04-20T09:01:01.801Z,7.50
2023-04-20T09:03:36.289Z,7.80
2023-04-20T09:06:06.327Z,7.90
2023-04-20T09:08:37.238Z,8.10
2023-04-20T09:11:04.079Z,8.30
2023-04-20T09:13:30.907Z,8.50
2023-04-20T09:15:58.066Z,8.60
2023-04-20T09:18:24.899Z,8.70
2023-04-20T09:20:51.890Z,8.80
2023-04-20T09:23:19.528Z,8.70
2023-04-20T09:25:47.443Z,8.40
2023-04-20T09:28:17.902Z,8.50
2023-04-20T09:30:45.884Z,8.50
2023-04-20T09:33:14.432Z,8.50
2023-04-20T09:35:42.148Z,8.70
2023-04-20T09:38:09.776Z,8.90
2023-04-20T09:40:39.394Z,9.00
2023-04-20T09:43:10.438Z,9.20
2023-04-20T09:45:38.327Z,9.20
2023-04-20T09:48:06.766Z,9.30
2023-04-20T09:50:48.366Z,9.50
2023-04-20T09:53:18.935Z,9.70
2023-04-20T09:55:46.430Z,9.70
2023-04-20T09:58:15.808Z,9.60
2023-04-20T10:00:42.874Z,9.80
2023-04-20T10:03:11.189Z,10.00
2023-04-20T10:05:39.777Z,10.00
2023-04-20T10:08:06.715Z,10.00
2023-04-20T10:10:43.349Z,10.10
2023-04-20T10:13:12.651Z,10.20
2023-04-20T10:15:40.594Z,9.90
2023-04-20T10:18:19.863Z,10.10
2023-04-20T10:20:47.063Z,10.60
2023-04-20T10:23:16.167Z,10.80
2023-04-20T10:25:45.454Z,10.90
2023-04-20T10:28:14.901Z,11.10
2023-04-20T10:30:50.411Z,11.40
2023-04-20T10:33:18.161Z,11.50
2023-04-20T10:35:50.691Z,11.70
2023-04-20T10:38:37.759Z,11.70
2023-04-20T10:41:08.039Z,12.00
2023-04-20T10:43:42.245Z,11.70
2023-04-20T10:46:22.271Z,11.50
2023-04-20T10:48:54.137Z,11.20
2023-04-20T10:51:23.964Z,10.50
2023-04-20T10:54:00.075Z,10.10
2023-04-20T10:56:29.229Z,9.90
2023-04-20T10:59:05.664Z,9.80
2023-04-20T11:01:34.942Z,9.70
2023-04-20T11:04:01.945Z,9.60
2023-04-20T11:06:28.940Z,9.60
2023-04-20T11:08:56.284Z,9.80
2023-04-20T11:11:27.777Z,9.80
2023-04-20T11:14:11.072Z,9.70
2023-04-20T11:16:50.799Z,9.70
2023-04-20T11:19:32.425Z,9.70
2023-04-20T11:21:59.387Z,9.60
2023-04-20T11:24:27.096Z,9.50
2023-04-20T11:26:54.554Z,9.50
2023-04-20T11:29:33.191Z,9.50
2023-04-20T11:32:01.213Z,9.40
2023-04-20T11:34:28.524Z,9.50
2023-04-20T11:36:59.633Z,9.30
2023-04-20T11:39:27.356Z,9.10
2023-04-20T11:41:54.496Z,9.00
2023-04-20T11:44:24.375Z,8.50
2023-04-20T11:46:53.270Z,8.40
2023-04-20T11:49:22.997Z,8.40
2023-04-20T11:51:50.223Z,8.50
2023-04-20T11:54:19.612Z,8.60
2023-04-20T11:56:48.906Z,8.80
2023-04-20T11:59:17.146Z,8.50
2023-04-20T12:01:47.640Z,8.40
2023-04-20T12:04:15.591Z,8.40
2023-04-20T12:06:45.026Z,8.70
2023-04-20T12:09:14.867Z,9.00
2023-04-20T12:11:44.394Z,9.20
2023-04-20T12:14:13.690Z,9.30
2023-04-20T12:16:40.664Z,9.30
2023-04-20T12:19:12.530Z,9.20
2023-04-20T12:21:39.549Z,9.10
2023-04-20T12:24:06.422Z,9.00
2023-04-20T12:26:38.911Z,9.00
2023-04-20T12:29:06.030Z,9.10
2023-04-20T12:31:32.931Z,8.90
2023-04-20T12:33:59.772Z,8.90
2023-04-20T12:36:28.838Z,8.90
2023-04-20T12:38:56.062Z,9.20
2023-04-20T12:41:23.532Z,9.30
2023-04-20T12:43:50.806Z,9.70
2023-04-20T12:46:20.012Z,9.80
2023-04-20T12:48:46.857Z,10.20
2023-04-20T12:51:14.361Z,10.50
2023-04-20T12:53:43.808Z,10.70
2023-04-20T12:56:11.190Z,10.70
2023-04-20T12:58:40.436Z,10.30
2023-04-20T13:01:07.253Z,10.10
2023-04-20T13:03:34.705Z,10.20
2023-04-20T13:06:01.719Z,10.00
2023-04-20T13:08:54.068Z,9.90
2023-04-20T13:11:21.008Z,9.80
2023-04-20T13:13:47.898Z,9.60
2023-04-20T13:16:15.000Z,9.60
2023-04-20T13:18:41.940Z,9.40
2023-04-20T13:21:10.866Z,9.40
2023-04-20T13:23:38.308Z,9.50
2023-04-20T13:26:08.458Z,9.80
2023-04-20T13:28:35.445Z,10.10
2023-04-20T13:31:04.671Z,10.50
2023-04-20T13:33:35.825Z,10.70
2023-04-20T13:36:07.192Z,10.50
2023-04-20T13:38:36.514Z,10.40
2023-04-20T13:41:05.381Z,10.30
2023-04-20T13:43:34.635Z,10.10
2023-04-20T13:46:01.423Z,10.00
2023-04-20T13:48:31.349Z,9.90
2023-04-20T13:51:00.423Z,10.00
2023-04-20T13:53:27.532Z,10.00
2023-04-20T13:55:54.364Z,10.10
2023-04-20T13:58:21.115Z,10.00
2023-04-20T14:00:47.964Z,9.90
2023-04-20T14:03:15.727Z,9.80
2023-04-20T14:05:45.890Z,9.70
2023-04-20T14:08:13.700Z,9.70
2023-04-20T14:10:42.676Z,9.60
2023-04-20T14:13:09.773Z,9.60
2023-04-20T14:15:41.797Z,9.50
2023-04-20T14:18:09.223Z,9.50
2023-04-20T14:20:36.095Z,9.50
2023-04-20T14:23:07.361Z,9.60
2023-04-20T14:25:37.860Z,9.60
2023-04-20T14:28:04.791Z,9.60
2023-04-20T14:30:34.120Z,9.60
2023-04-20T14:33:01.007Z,9.60
2023-04-20T14:35:28.165Z,9.60
2023-04-20T14:37:55.007Z,9.50
2023-04-20T14:40:24.711Z,9.60
2023-04-20T14:42:51.707Z,9.50
2023-04-20T14:45:18.881Z,9.20
2023-04-20T14:47:47.723Z,9.20
2023-04-20T14:50:14.639Z,9.10
2023-04-20T14:52:43.779Z,9.10
2023-04-20T14:55:10.699Z,8.90
2023-04-20T14:57:37.616Z,8.90
2023-04-20T15:00:05.883Z,8.90
2023-04-20T15:02:32.890Z,8.90
2023-04-20T15:05:00.161Z,8.90
2023-04-20T15:07:28.532Z,8.70
2023-04-20T15:09:57.824Z,8.70
2023-04-20T15:12:24.628Z,8.70
2023-04-20T15:14:51.412Z,8.70
2023-04-20T15:17:18.318Z,8.70
2023-04-20T15:19:46.226Z,8.70
2023-04-20T15:22:13.662Z,8.80
2023-04-20T15:24:40.720Z,8.80
2023-04-20T15:27:09.872Z,8.80
2023-04-20T15:29:36.852Z,8.80
2023-04-20T15:32:04.486Z,8.80
2023-04-20T15:34:31.439Z,8.70
2023-04-20T15:36:58.360Z,8.70
2023-04-20T15:39:27.560Z,8.60
2023-04-20T15:41:54.342Z,8.60
2023-04-20T15:44:21.207Z,8.50
2023-04-20T15:46:47.959Z,8.40
2023-04-20T15:49:15.117Z,8.40
2023-04-20T15:51:43.873Z,8.30
2023-04-20T15:54:12.247Z,8.40
2023-04-20T15:56:39.076Z,8.10
2023-04-20T15:59:08.557Z,8.10
2023-04-20T16:01:35.544Z,8.10
2023-04-20T16:04:02.715Z,8.20
2023-04-20T16:06:29.636Z,8.20
2023-04-20T16:08:57.687Z,8.20
2023-04-20T16:11:24.657Z,8.10
2023-04-20T16:13:51.525Z,8.20
2023-04-20T16:16:18.410Z,8.10
2023-04-20T16:18:45.328Z,8.00
2023-04-20T16:21:12.330Z,8.00
2023-04-20T16:23:39.365Z,8.00
2023-04-20T16:26:06.296Z,7.80
2023-04-20T16:28:35.888Z,7.90
2023-04-20T16:31:03.032Z,7.90
2023-04-20T16:33:32.080Z,8.00
2023-04-20T16:35:58.885Z,8.00
2023-04-20T16:38:25.777Z,8.00
2023-04-20T16:40:54.994Z,8.00
2023-04-20T16:43:21.905Z,8.00
2023-04-20T16:45:48.805Z,8.10
2023-04-20T16:48:18.459Z,8.00
2023-04-20T16:50:46.171Z,8.00
2023-04-20T16:53:12.962Z,8.10
2023-04-20T16:55:39.769Z,8.00
2023-04-20T16:58:09.580Z,8.10
2023-04-20T17:00:36.629Z,8.00
2023-04-20T17:03:10.839Z,8.10
2023-04-20T17:05:42.079Z,8.00
2023-04-20T17:08:09.550Z,8.00
2023-04-20T17:10:39.460Z,8.00
2023-04-20T17:13:08.717Z,8.00
2023-04-20T17:15:35.672Z,7.90
2023-04-20T17:18:02.638Z,7.80
2023-04-20T17:20:29.469Z,7.80
2023-04-20T17:22:56.268Z,7.90
2023-04-20T17:25:23.132Z,7.90
2023-04-20T17:27:50.051Z,8.00
2023-04-20T17:30:17.409Z,8.00
2023-04-20T17:32:44.285Z,8.00
2023-04-20T17:35:11.247Z,8.00
2023-04-20T17:37:38.124Z,8.00
2023-04-20T17:40:07.704Z,8.00
2023-04-20T17:42:34.613Z,8.00
2023-04-20T17:45:01.474Z,8.00
2023-04-20T17:47:32.557Z,8.00
2023-04-20T17:49:59.940Z,8.00
2023-04-20T17:52:27.005Z,8.00
2023-04-20T17:54:54.364Z,8.00
2023-04-20T17:57:21.329Z,7.90
2023-04-20T17:59:48.524Z,7.80
2023-04-20T18:02:18.192Z,7.70
2023-04-20T18:04:45.326Z,7.60
2023-04-20T18:07:13.514Z,7.70
2023-04-20T18:09:40.429Z,7.70
2023-04-20T18:12:08.717Z,7.80
2023-04-20T18:14:39.171Z,7.80
2023-04-20T18:17:08.717Z,7.80
2023-04-20T18:19:35.677Z,7.80
2023-04-20T18:22:02.559Z,7.90
2023-04-20T18:24:32.261Z,7.90
2023-04-20T18:26:59.332Z,7.90
2023-04-20T18:29:26.230Z,7.90
2023-04-20T18:31:55.026Z,7.80
2023-04-20T18:34:22.166Z,7.90
2023-04-20T18:36:48.967Z,8.00
2023-04-20T18:39:16.211Z,8.00
2023-04-20T18:41:43.308Z,7.80
2023-04-20T18:45:00.434Z,7.80
2023-04-20T18:47:27.427Z,7.80
2023-04-20T18:49:57.327Z,7.80
2023-04-20T18:52:24.199Z,7.80
2023-04-20T18:54:51.805Z,7.80
2023-04-20T18:57:21.458Z,7.80
2023-04-20T18:59:48.250Z,7.70
2023-04-20T19:02:15.322Z,7.60
2023-04-20T19:04:42.281Z,7.60
2023-04-20T19:07:09.429Z,7.60
2023-04-20T19:09:38.575Z,7.70
2023-04-20T19:12:05.517Z,7.80
2023-04-20T19:14:32.451Z,7.80
2023-04-20T19:17:02.014Z,7.80
2023-04-20T19:19:29.012Z,7.90
2023-04-20T19:21:57.471Z,7.90
2023-04-20T19:24:24.759Z,8.00
2023-04-20T19:26:54.260Z,8.00
2023-04-20T19:29:21.150Z,7.90
2023-04-20T19:31:47.967Z,7.80
2023-04-20T19:34:15.281Z,7.80
2023-04-20T19:36:44.472Z,7.80
2023-04-20T19:39:11.460Z,7.80
2023-04-20T19:41:40.810Z,7.80
2023-04-20T19:44:09.833Z,7.90
2023-04-20T19:46:38.707Z,7.80
2023-04-20T19:49:05.659Z,7.80
2023-04-20T19:51:32.860Z,7.70
2023-04-20T19:54:00.464Z,7.70
2023-04-20T19:56:27.396Z,7.70
2023-04-20T19:58:54.317Z,7.70
2023-04-20T20:01:23.248Z,7.70
2023-04-20T20:03:50.380Z,7.70
2023-04-20T20:06:17.495Z,7.80
2023-04-20T20:08:44.328Z,7.80
2023-04-20T20:11:13.604Z,7.80
2023-04-20T20:13:40.697Z,7.80
2023-04-20T20:16:07.676Z,7.80
2023-04-20T20:18:34.670Z,7.80
2023-04-20T20:21:01.853Z,7.70
2023-04-20T20:23:31.314Z,7.70
2023-04-20T20:26:00.648Z,7.80
2023-04-20T20:28:28.059Z,7.80
2023-04-20T20:30:54.937Z,7.80
2023-04-20T20:33:22.027Z,7.80
2023-04-20T20:35:52.569Z,7.80
2023-04-20T20:38:22.836Z,7.70
2023-04-20T20:40:50.557Z,7.70
2023-04-20T20:43:18.945Z,7.70
2023-04-20T20:45:48.020Z,7.70
2023-04-20T20:48:14.860Z,7.70
2023-04-20T20:50:41.689Z,7.70
2023-04-20T20:53:09.084Z,7.60
2023-04-20T20:55:36.371Z,7.60
2023-04-20T20:58:03.508Z,7.60
2023-04-20T21:00:30.828Z,7.60
2023-04-20T21:02:58.066Z,7.60
2023-04-20T21:05:25.251Z,7.60
2023-04-20T21:07:52.098Z,7.50
2023-04-20T21:10:19.157Z,7.50
2023-04-20T21:12:46.003Z,7.50
2023-04-20T21:15:12.890Z,7.60
2023-04-20T21:17:39.750Z,7.60
2023-04-20T21:20:09.100Z,7.70
2023-04-20T21:22:36.062Z,7.60
2023-04-20T21:25:05.553Z,7.60
2023-04-20T21:27:32.649Z,7.50
2023-04-20T21:30:02.583Z,7.50
2023-04-20T21:32:29.628Z,7.50
2023-04-20T21:34:56.555Z,7.50
2023-04-20T21:37:23.320Z,7.40
2023-04-20T21:39:51.133Z,7.40
2023-04-20T21:42:21.034Z,7.40
2023-04-20T21:44:48.189Z,7.30
2023-04-20T21:47:15.183Z,7.40
2023-04-20T21:49:44.443Z,7.40
2023-04-20T21:52:11.339Z,7.40
2023-04-20T21:54:40.122Z,7.30
2023-04-20T21:57:07.161Z,7.30
2023-04-20T21:59:36.547Z,7.20
2023-04-20T22:02:05.673Z,7.30
2023-04-20T22:04:35.060Z,7.30
2023-04-20T22:07:04.249Z,7.30
2023-04-20T22:09:31.101Z,7.30
2023-04-20T22:12:02.052Z,7.30
2023-04-20T22:14:29.127Z,7.20
2023-04-20T22:16:56.028Z,7.20
2023-04-20T22:19:25.145Z,7.20
2023-04-20T22:21:54.542Z,7.20
2023-04-20T22:24:24.156Z,7.20
2023-04-20T22:26:53.432Z,7.10
2023-04-20T22:29:21.813Z,7.10
2023-04-20T22:31:48.875Z,7.20
2023-04-20T22:34:15.895Z,7.20
2023-04-20T22:36:45.071Z,7.30
2023-04-20T22:39:13.952Z,7.30
2023-04-20T22:41:43.291Z,7.40
2023-04-20T22:44:10.211Z,7.40
2023-04-20T22:46:37.109Z,7.40
2023-04-20T22:49:04.387Z,7.40
2023-04-20T22:51:33.643Z,7.50
2023-04-20T22:54:02.632Z,7.50
2023-04-20T22:56:32.081Z,7.40
2023-04-20T22:58:58.882Z,7.30
2023-04-20T23:01:25.834Z,7.20
2023-04-20T23:03:57.685Z,7.20
2023-04-20T23:06:24.656Z,7.20
2023-04-20T23:08:51.476Z,7.10
2023-04-20T23:11:18.832Z,7.10
2023-04-20T23:13:46.851Z,7.10
2023-04-20T23:16:13.706Z,6.90
2023-04-20T23:18:43.147Z,6.70
2023-04-20T23:21:09.993Z,6.40
2023-04-20T23:23:39.321Z,6.20
2023-04-20T23:26:06.145Z,6.00
2023-04-20T23:28:32.955Z,5.90
2023-04-20T23:30:59.836Z,5.80
2023-04-20T23:33:31.687Z,5.70
2023-04-20T23:36:00.960Z,5.60
2023-04-20T23:38:28.062Z,5.60
2023-04-20T23:40:55.071Z,5.50
2023-04-20T23:43:24.302Z,5.50
2023-04-20T23:45:51.380Z,5.40
2023-04-20T23:48:18.282Z,5.40
2023-04-20T23:50:45.234Z,5.40
2023-04-20T23:53:12.031Z,5.30
2023-04-20T23:55:41.396Z,5.20
2023-04-20T23:58:08.184Z,5.20
